Idlewood, Illinois
Current Conditions -  °F | °C
As of 8:15 PM on Friday 31 Oct 2014 (Local Time) from KMVN Reporting Station
Clear Clear  
Wind Chill:   Ceiling: Unl
Heat Index:   Visibility: 10mi
Dew Point: -6°   Wind: 10mph
Humidity: 49%   Direction: 360°N
Pressure: 30.31"   Gusts: 21mph
Location:  38.3147°N, 88.9065°W
Report Text: KMVN 010115Z AUTO 36009G18KT 10SM CLR 04/M06 A3031 RMK AO1
Loading
Personal Weather Stations






























Interactive Weather Map
Tropical Storm Tracking
New forecast layout! Learn more

10-Day Weather Forecast

Advertisements
Track Severe Weather on mobile